Time,TemperatureF,DewpointF,PressureIn,WindDirection,WindDirectionDegrees,WindSpeedMPH,WindSpeedGustMPH,Humidity,HourlyPrecipIn,Conditions,Clouds,dailyrainin,SoftwareType,DateUTC
2014-12-27 00:03:00,45.0,34.0,30.18,North,0,0.0,-999.0,65,-99.99,,,-99.99,,2014-12-27 05:03:00,
2014-12-27 00:52:00,43.0,34.0,30.18,North,0,0.0,-999.0,70,-99.99,,,-99.99,,2014-12-27 05:52:00,
2014-12-27 01:02:00,43.0,34.0,30.18,North,0,0.0,-999.0,70,-99.99,,,-99.99,,2014-12-27 06:02:00,
2014-12-27 01:52:00,43.0,34.0,30.18,North,0,0.0,-999.0,70,-99.99,,,-99.99,,2014-12-27 06:52:00,
2014-12-27 02:02:00,43.0,34.0,30.18,North,0,0.0,-999.0,70,-99.99,,,-99.99,,2014-12-27 07:02:00,
2014-12-27 02:52:00,43.0,34.0,30.19,SSE,150,6.0,-999.0,70,-99.99,,,-99.99,,2014-12-27 07:52:00,
2014-12-27 03:02:00,43.0,34.0,30.19,SSE,150,6.0,-999.0,70,-99.99,,,-99.99,,2014-12-27 08:02:00,
2014-12-27 03:52:00,43.0,34.0,30.19,SSE,150,6.0,-999.0,70,-99.99,,,-99.99,,2014-12-27 08:52:00,
2014-12-27 04:03:00,43.0,34.0,30.19,SSE,150,6.0,-999.0,70,-99.99,,,-99.99,,2014-12-27 09:03:00,
2014-12-27 04:53:00,41.0,34.0,30.18,South,170,7.0,-999.0,75,-99.99,,,-99.99,,2014-12-27 09:53:00,
2014-12-27 05:03:00,41.0,34.0,30.18,South,170,7.0,-999.0,75,-99.99,,,-99.99,,2014-12-27 10:03:00,
2014-12-27 05:53:00,43.0,34.0,30.18,South,170,8.0,-999.0,70,-99.99,,,-99.99,,2014-12-27 10:53:00,
2014-12-27 06:03:00,43.0,34.0,30.18,South,170,8.0,-999.0,70,-99.99,,,-99.99,,2014-12-27 11:03:00,
2014-12-27 06:52:00,43.0,34.0,30.19,South,180,9.0,-999.0,70,-99.99,,,-99.99,,2014-12-27 11:52:00,
2014-12-27 07:02:00,43.0,34.0,30.19,South,180,9.0,-999.0,70,-99.99,,,-99.99,,2014-12-27 12:02:00,
2014-12-27 07:52:00,43.0,34.0,30.20,South,190,7.0,-999.0,70,-99.99,,,-99.99,,2014-12-27 12:52:00,
2014-12-27 08:02:00,43.0,34.0,30.20,South,190,7.0,-999.0,70,-99.99,,,-99.99,,2014-12-27 13:02:00,
2014-12-27 08:52:00,43.0,36.0,30.20,South,170,8.0,-999.0,75,-99.99,,,-99.99,,2014-12-27 13:52:00,
2014-12-27 09:02:00,43.0,36.0,30.20,South,170,8.0,-999.0,75,-99.99,,,-99.99,,2014-12-27 14:02:00,
2014-12-27 09:52:00,45.0,36.0,30.19,South,190,10.0,-999.0,70,-99.99,,,-99.99,,2014-12-27 14:52:00,
2014-12-27 10:02:00,45.0,36.0,30.19,South,190,10.0,-999.0,70,-99.99,,,-99.99,,2014-12-27 15:02:00,
2014-12-27 10:54:00,46.0,37.0,30.18,South,190,12.0,-999.0,70,-99.99,,,-99.99,,2014-12-27 15:54:00,
2014-12-27 11:04:00,46.0,37.0,30.18,South,190,12.0,-999.0,70,-99.99,,,-99.99,,2014-12-27 16:04:00,
2014-12-27 11:54:00,48.0,39.0,30.17,SSW,200,10.0,-999.0,70,-99.99,,,-99.99,,2014-12-27 16:54:00,
2014-12-27 12:02:00,48.0,39.0,30.17,SSW,200,10.0,-999.0,70,-99.99,,,-99.99,,2014-12-27 17:02:00,
2014-12-27 12:52:00,50.0,39.0,30.12,SW,220,15.0,-999.0,66,-99.99,,,-99.99,,2014-12-27 17:52:00,
2014-12-27 13:03:00,50.0,39.0,30.12,SW,220,15.0,-999.0,66,-99.99,,,-99.99,,2014-12-27 18:03:00,
2014-12-27 13:53:00,50.0,43.0,30.10,SW,220,14.0,20.0,76,-99.99,,,-99.99,,2014-12-27 18:53:00,
2014-12-27 14:03:00,50.0,43.0,30.10,SW,220,14.0,20.0,76,-99.99,,,-99.99,,2014-12-27 19:03:00,
2014-12-27 14:52:00,48.0,45.0,30.10,SW,220,14.0,20.0,87,-99.99,,,-99.99,,2014-12-27 19:52:00,
2014-12-27 15:02:00,48.0,45.0,30.10,SW,220,14.0,20.0,87,-99.99,,,-99.99,,2014-12-27 20:02:00,
2014-12-27 15:52:00,48.0,45.0,30.10,SW,220,12.0,-999.0,87,-99.99,,,-99.99,,2014-12-27 20:52:00,
2014-12-27 16:02:00,48.0,45.0,30.10,SW,220,12.0,-999.0,87,-99.99,,,-99.99,,2014-12-27 21:02:00,
2014-12-27 16:54:00,48.0,45.0,30.10,SW,220,9.0,-999.0,87,-99.99,,,-99.99,,2014-12-27 21:54:00,
2014-12-27 17:04:00,48.0,45.0,30.10,SW,220,9.0,-999.0,87,-99.99,,,-99.99,,2014-12-27 22:04:00,
2014-12-27 17:53:00,46.0,45.0,30.10,SSW,200,8.0,-999.0,93,-99.99,,,-99.99,,2014-12-27 22:53:00,
2014-12-27 18:03:00,46.0,45.0,30.10,SSW,200,8.0,-999.0,93,-99.99,,,-99.99,,2014-12-27 23:03:00,
2014-12-27 18:53:00,46.0,45.0,30.09,SW,220,8.0,-999.0,93,-99.99,,,-99.99,,2014-12-27 23:53:00,
2014-12-27 19:02:00,46.0,45.0,30.09,SW,220,8.0,-999.0,93,-99.99,,,-99.99,,2014-12-28 00:02:00,
2014-12-27 19:52:00,46.0,45.0,30.07,SSW,210,7.0,-999.0,93,-99.99,,,-99.99,,2014-12-28 00:52:00,
2014-12-27 20:02:00,46.0,45.0,30.07,SSW,210,7.0,-999.0,93,-99.99,,,-99.99,,2014-12-28 01:02:00,
2014-12-27 20:52:00,46.0,45.0,30.05,SSW,210,8.0,-999.0,93,-99.99,,,-99.99,,2014-12-28 01:52:00,
2014-12-27 21:02:00,46.0,45.0,30.05,SSW,210,8.0,-999.0,93,-99.99,,,-99.99,,2014-12-28 02:02:00,
2014-12-27 21:52:00,46.0,45.0,30.06,WSW,240,7.0,-999.0,93,-99.99,,,-99.99,,2014-12-28 02:52:00,
2014-12-27 22:02:00,46.0,45.0,30.06,WSW,240,7.0,-999.0,93,-99.99,,,-99.99,,2014-12-28 03:02:00,
2014-12-27 22:54:00,46.0,45.0,30.06,West,260,7.0,-999.0,93,-99.99,,,-99.99,,2014-12-28 03:54:00,
2014-12-27 23:03:00,-999.0,-99.9,30.06,West,260,7.0,-999.0,-999,-99.99,,,-99.99,,2014-12-28 04:03:00,